Time;durP1;ratioP1;P1;durP2;ratioP2;P2;SDS_P1;SDS_P2;PMS_P1;PMS_P2;Temp;Humidity;BMP_temperature;BMP_pressure;BME280_temperature;BME280_humidity;BME280_pressure;Samples;Min_cycle;Max_cycle;Signal;HPM_P1;HPM_P2
2022/02/18 00:00:54;;;;;;;5.10;1.42;;;;;;;8.34;60.53;98629.56;4954417;29;20042;-76
2022/02/18 00:03:21;;;;;;;4.57;0.82;;;;;;;8.44;59.61;98642.38;4948541;29;20028;-76
2022/02/18 00:05:46;;;;;;;0.50;0.50;;;;;;;8.57;59.50;98644.81;4950049;29;20055;-76
2022/02/18 00:08:12;;;;;;;1.70;1.60;;;;;;;8.45;60.16;98657.00;4954201;28;20070;-76
2022/02/18 00:10:37;;;;;;;4.50;1.33;;;;;;;8.34;60.20;98663.97;4936976;29;20027;-76
2022/02/18 00:13:03;;;;;;;0.85;0.82;;;;;;;8.34;60.44;98653.66;4954121;29;20529;-76
2022/02/18 00:15:28;;;;;;;2.90;0.57;;;;;;;8.21;60.66;98645.19;4954206;29;20054;-76
2022/02/18 00:17:54;;;;;;;7.68;2.00;;;;;;;8.15;60.96;98646.97;4954273;28;20483;-76
2022/02/18 00:20:19;;;;;;;0.82;0.82;;;;;;;8.02;61.36;98651.41;4954009;29;20023;-76
2022/02/18 00:22:45;;;;;;;1.85;1.05;;;;;;;7.95;61.83;98655.78;4954014;29;20038;-76
2022/02/18 00:25:10;;;;;;;6.32;0.80;;;;;;;7.91;61.71;98659.25;4954048;29;20038;-76
2022/02/18 00:27:37;;;;;;;0.50;0.50;;;;;;;7.87;61.97;98647.25;4953628;28;20513;-76
2022/02/18 00:30:04;;;;;;;2.00;1.88;;;;;;;7.75;62.70;98652.53;4953870;29;20405;-76
2022/02/18 00:32:30;;;;;;;0.80;0.80;;;;;;;7.78;62.53;98659.38;4951945;29;20034;-76
2022/02/18 00:34:55;;;;;;;1.23;1.20;;;;;;;7.66;62.99;98673.22;4945974;29;20023;-76
2022/02/18 00:37:20;;;;;;;1.67;1.58;;;;;;;7.66;62.99;98668.91;4952616;29;20031;-76
2022/02/18 00:39:46;;;;;;;1.02;1.02;;;;;;;7.67;63.31;98669.78;4953776;28;20503;-76
2022/02/18 00:42:12;;;;;;;2.75;2.25;;;;;;;7.69;62.84;98647.44;4953804;29;20031;-76
2022/02/18 00:44:37;;;;;;;1.30;0.88;;;;;;;7.65;63.26;98645.75;4953849;29;20031;-76
2022/02/18 00:47:03;;;;;;;1.10;1.10;;;;;;;7.91;61.94;98641.19;4953713;29;20473;-75
2022/02/18 00:49:28;;;;;;;1.02;0.85;;;;;;;8.02;61.33;98645.38;4952442;29;20090;-75
2022/02/18 00:51:53;;;;;;;2.65;0.70;;;;;;;8.07;61.77;98648.78;4953834;29;20027;-75
2022/02/18 00:54:19;;;;;;;0.63;0.63;;;;;;;8.13;61.65;98654.75;4953747;29;20029;-75
2022/02/18 00:56:44;;;;;;;0.43;0.43;;;;;;;8.16;61.48;98659.00;4952213;28;20027;-75
2022/02/18 00:59:10;;;;;;;1.15;1.05;;;;;;;8.16;61.23;98662.44;4957483;28;20097;-75
2022/02/18 05:17:23;;;;;;;2.83;0.60;;;;;;;7.16;71.69;98446.00;5013294;23;20056;-68
2022/02/18 05:19:48;;;;;;;0.90;0.88;;;;;;;7.23;71.27;98446.78;4915539;29;20036;-70
2022/02/18 05:22:13;;;;;;;1.23;1.23;;;;;;;7.27;71.73;98443.31;4915521;29;20103;-70
2022/02/18 05:24:39;;;;;;;1.08;0.65;;;;;;;7.36;70.85;98432.91;4915348;29;20028;-70
2022/02/18 05:27:05;;;;;;;0.93;0.93;;;;;;;7.40;71.42;98429.44;4915103;29;20055;-70
2022/02/18 05:29:30;;;;;;;1.13;1.13;;;;;;;7.82;69.15;98416.88;4916005;29;20056;-70
2022/02/18 05:31:55;;;;;;;0.40;0.40;;;;;;;7.92;68.18;98418.47;4915654;29;20028;-69
2022/02/18 05:34:21;;;;;;;0.52;0.52;;;;;;;8.06;68.24;98417.44;4926457;29;20638;-68
2022/02/18 05:36:46;;;;;;;0.90;0.90;;;;;;;7.97;68.51;98403.78;4934116;29;20067;-70
2022/02/18 05:39:12;;;;;;;1.20;1.15;;;;;;;8.37;66.09;98394.66;4933130;29;20481;-69
2022/02/18 05:41:38;;;;;;;5.38;0.75;;;;;;;8.75;64.85;98378.53;4933979;29;20039;-68
2022/02/18 05:44:03;;;;;;;0.80;0.63;;;;;;;8.77;65.09;98379.38;4936223;29;20112;-68
2022/02/18 05:46:29;;;;;;;3.13;1.90;;;;;;;8.71;64.72;98369.16;4937486;29;20028;-67
2022/02/18 05:48:54;;;;;;;0.57;0.57;;;;;;;8.69;64.19;98361.41;4937741;29;20027;-70
2022/02/18 05:51:19;;;;;;;1.63;0.75;;;;;;;8.82;63.45;98353.47;4920529;29;20028;-69
2022/02/18 05:53:45;;;;;;;1.88;1.25;;;;;;;8.83;63.15;98352.56;4937562;29;20055;-69
2022/02/18 05:56:10;;;;;;;0.82;0.82;;;;;;;8.86;62.99;98348.22;4937174;29;20043;-67
2022/02/18 05:58:35;;;;;;;4.05;1.02;;;;;;;8.89;62.25;98330.06;4937559;29;20098;-69
2022/02/18 06:01:01;;;;;;;1.90;1.80;;;;;;;8.93;62.77;98339.44;4937634;29;20023;-71
2022/02/18 06:03:26;;;;;;;0.95;0.95;;;;;;;8.87;63.35;98328.41;4930716;29;20377;-69
2022/02/18 06:05:52;;;;;;;1.45;1.42;;;;;;;8.99;61.96;98318.69;4933656;29;20034;-70
2022/02/18 06:08:17;;;;;;;3.88;1.30;;;;;;;9.09;63.19;98315.91;4937375;29;20027;-69
2022/02/18 06:10:42;;;;;;;2.08;1.25;;;;;;;9.13;61.99;98322.72;4937218;29;20354;-69
2022/02/18 06:13:08;;;;;;;2.45;1.67;;;;;;;8.90;62.90;98316.28;4937283;29;20083;-69
2022/02/18 06:15:33;;;;;;;15.43;3.03;;;;;;;8.91;62.47;98314.53;4937049;29;20035;-70
2022/02/18 06:17:59;;;;;;;2.35;1.13;;;;;;;8.83;63.67;98312.09;4936984;29;20081;-71
2022/02/18 06:20:25;;;;;;;0.70;0.70;;;;;;;8.76;63.48;98307.94;4937207;29;20028;-70
2022/02/18 06:22:51;;;;;;;0.75;0.75;;;;;;;8.72;64.69;98301.13;4936999;29;20114;-70
2022/02/18 06:25:16;;;;;;;16.98;1.65;;;;;;;8.93;63.50;98287.78;4936897;29;20024;-70
2022/02/18 06:27:42;;;;;;;1.75;0.98;;;;;;;9.32;60.94;98285.28;4936776;29;20046;-70
2022/02/18 06:30:08;;;;;;;2.63;1.50;;;;;;;9.02;62.74;98290.19;4919945;29;20555;-70
2022/02/18 06:32:34;;;;;;;0.82;0.82;;;;;;;8.89;64.17;98296.47;4934763;29;20020;-70
2022/02/18 06:34:59;;;;;;;7.60;1.42;;;;;;;8.82;64.13;98288.88;4928788;29;20030;-70
2022/02/18 06:37:24;;;;;;;0.93;0.73;;;;;;;8.84;63.86;98282.78;4936579;29;20106;-69
2022/02/18 06:39:50;;;;;;;0.93;0.90;;;;;;;9.35;62.58;98274.88;4936654;29;20071;-70
2022/02/18 06:42:15;;;;;;;2.42;1.48;;;;;;;9.17;62.48;98267.50;4936766;29;20047;-68
2022/02/18 06:44:41;;;;;;;0.50;0.50;;;;;;;9.02;63.44;98269.50;4919770;29;20035;-67
2022/02/18 06:47:06;;;;;;;7.75;0.73;;;;;;;8.93;64.20;98264.53;4936486;29;20035;-67
2022/02/18 06:49:32;;;;;;;2.80;1.40;;;;;;;9.07;64.37;98258.25;4936690;29;20054;-69
2022/02/18 06:51:58;;;;;;;4.78;2.30;;;;;;;9.26;63.10;98256.97;4919663;29;20040;-67
2022/02/18 06:54:27;;;;;;;7.13;0.60;;;;;;;9.31;62.87;98247.38;4936066;29;20474;-69
2022/02/18 06:56:54;;;;;;;0.40;0.40;;;;;;;9.22;63.91;98247.59;4936256;29;20114;-67
2022/02/18 06:59:19;;;;;;;0.50;0.50;;;;;;;9.44;62.47;98240.22;4936446;29;20078;-72
2022/02/18 07:01:47;;;;;;;3.38;1.75;;;;;;;9.28;63.80;98247.44;4935445;29;20053;-68
2022/02/18 07:04:15;;;;;;;1.88;1.00;;;;;;;9.46;61.74;98236.72;4927725;29;20028;-68
2022/02/18 07:06:41;;;;;;;1.27;0.73;;;;;;;9.34;63.06;98231.81;4919215;29;20496;-68
2022/02/18 07:09:08;;;;;;;0.75;0.75;;;;;;;9.49;62.45;98228.88;4936293;29;20063;-68
2022/02/18 07:11:34;;;;;;;3.53;2.03;;;;;;;9.51;61.53;98227.09;4936405;29;20023;-68
2022/02/18 07:13:59;;;;;;;1.00;1.00;;;;;;;9.50;61.51;98228.00;4936245;29;20031;-69
2022/02/18 07:16:25;;;;;;;0.40;0.40;;;;;;;9.51;61.63;98224.53;4935918;29;20086;-69
2022/02/18 07:18:50;;;;;;;3.42;0.77;;;;;;;9.42;62.61;98219.56;4936284;29;20035;-68
2022/02/18 07:21:17;;;;;;;1.02;1.02;;;;;;;9.42;62.30;98213.53;4936087;29;20034;-69
2022/02/18 07:23:42;;;;;;;6.35;1.20;;;;;;;9.35;63.24;98205.06;4935976;29;20023;-68
2022/02/18 07:26:07;;;;;;;3.47;1.08;;;;;;;9.29;62.17;98206.97;4935732;29;20040;-68
2022/02/18 07:28:33;;;;;;;1.35;0.60;;;;;;;9.35;62.54;98191.31;4936039;29;20038;-68
2022/02/18 07:30:58;;;;;;;0.50;0.50;;;;;;;9.44;62.26;98191.94;4936006;29;20079;-68
2022/02/18 07:33:24;;;;;;;3.60;0.65;;;;;;;9.44;62.13;98191.94;4929806;29;20053;-68
2022/02/18 07:35:49;;;;;;;0.40;0.40;;;;;;;9.36;63.29;98190.41;4931859;29;20038;-68
2022/02/18 07:38:15;;;;;;;13.75;1.02;;;;;;;9.38;63.20;98184.34;4935819;29;20039;-68
2022/02/18 07:40:41;;;;;;;0.30;0.30;;;;;;;9.28;63.11;98190.56;4935640;29;20489;-68
2022/02/18 07:43:07;;;;;;;5.03;0.93;;;;;;;9.25;63.81;98190.66;4918731;29;20058;-69
2022/02/18 07:45:32;;;;;;;1.98;1.10;;;;;;;9.31;64.02;98180.19;4935585;29;20055;-68
2022/02/18 07:47:57;;;;;;;7.90;1.83;;;;;;;9.33;63.65;98178.41;4935544;29;20083;-68
2022/02/18 07:50:24;;;;;;;5.38;2.58;;;;;;;9.34;64.36;98185.28;4935659;29;20052;-69
2022/02/18 07:52:50;;;;;;;3.50;1.70;;;;;;;9.37;64.45;98174.84;4935469;29;20086;-69
2022/02/18 07:55:16;;;;;;;3.35;1.42;;;;;;;9.30;64.09;98170.72;4935715;29;20020;-69
2022/02/18 07:57:41;;;;;;;7.70;2.35;;;;;;;9.26;65.20;98161.34;4935251;29;20042;-68
2022/02/18 08:00:08;;;;;;;1.40;1.30;;;;;;;9.13;65.07;98165.91;4935576;29;20024;-68
2022/02/18 08:02:33;;;;;;;0.40;0.40;;;;;;;9.18;64.30;98150.31;4933403;29;20019;-68
2022/02/18 08:04:59;;;;;;;2.47;1.45;;;;;;;9.57;63.10;98134.75;4927482;29;20127;-68
2022/02/18 08:07:24;;;;;;;1.90;1.77;;;;;;;9.48;63.76;98141.88;4934896;29;20122;-68
2022/02/18 08:09:49;;;;;;;5.75;1.35;;;;;;;9.68;62.78;98137.94;4935422;29;20088;-68
2022/02/18 08:12:15;;;;;;;4.75;2.58;;;;;;;9.83;62.27;98126.34;4935266;29;20028;-68
2022/02/18 08:14:40;;;;;;;0.80;0.80;;;;;;;10.02;61.56;98122.41;4935384;29;20027;-70
2022/02/18 08:17:06;;;;;;;1.70;1.35;;;;;;;10.16;61.34;98115.13;4917778;29;20034;-69
2022/02/18 08:19:31;;;;;;;2.25;1.73;;;;;;;10.31;61.97;98108.72;4935241;29;20505;-68
2022/02/18 08:21:56;;;;;;;1.75;0.95;;;;;;;10.47;62.22;98112.56;4935021;29;20032;-69
2022/02/18 08:24:22;;;;;;;1.92;1.80;;;;;;;10.62;61.08;98103.50;4935033;29;20099;-67
2022/02/18 08:26:49;;;;;;;5.65;2.60;;;;;;;10.41;60.97;98104.97;4917738;29;20422;-67
2022/02/18 08:29:17;;;;;;;6.72;1.35;;;;;;;10.36;62.15;98093.88;4934952;29;20470;-69
2022/02/18 08:31:43;;;;;;;3.38;0.90;;;;;;;10.39;61.84;98096.38;4934205;29;20074;-69
2022/02/18 08:34:09;;;;;;;3.33;0.85;;;;;;;10.48;61.87;98096.13;4925693;29;20040;-69
2022/02/18 08:36:35;;;;;;;1.85;0.88;;;;;;;10.14;62.11;98090.16;4934759;29;20512;-69
2022/02/18 08:39:04;;;;;;;5.38;1.85;;;;;;;10.18;62.78;98091.78;4934906;29;20066;-68
2022/02/18 08:41:30;;;;;;;0.97;0.70;;;;;;;10.38;62.86;98088.66;4935030;29;20366;-68
2022/02/18 08:43:58;;;;;;;0.57;0.57;;;;;;;10.43;62.23;98086.78;4934741;29;20292;-68
2022/02/18 08:46:27;;;;;;;0.63;0.55;;;;;;;10.53;62.22;98068.34;4934626;29;20034;-69
2022/02/18 08:48:52;;;;;;;4.13;1.88;;;;;;;10.82;61.78;98064.88;4934751;29;20062;-69
2022/02/18 08:51:18;;;;;;;2.08;0.80;;;;;;;10.96;61.07;98056.69;4934827;29;20070;-69
2022/02/18 08:53:43;;;;;;;0.80;0.75;;;;;;;11.16;61.48;98062.97;4934757;29;20107;-68
2022/02/18 08:56:09;;;;;;;0.60;0.60;;;;;;;11.40;60.80;98057.00;4934711;29;20032;-69
2022/02/18 08:58:34;;;;;;;2.65;0.85;;;;;;;11.55;61.19;98055.66;4934853;29;20028;-69
2022/02/18 09:01:00;;;;;;;8.27;2.13;;;;;;;11.53;61.09;98042.72;4917614;29;20509;-69
2022/02/18 09:03:25;;;;;;;2.63;1.60;;;;;;;11.70;61.15;98034.38;4928136;29;20028;-68
2022/02/18 09:05:51;;;;;;;6.13;1.00;;;;;;;11.91;60.93;98038.00;4930951;29;20067;-68
2022/02/18 09:08:16;;;;;;;3.10;1.23;;;;;;;12.00;61.27;98032.50;4934809;29;20434;-69
2022/02/18 09:10:43;;;;;;;0.50;0.50;;;;;;;11.88;63.58;98029.47;4934716;29;20035;-69
2022/02/18 09:13:08;;;;;;;0.60;0.60;;;;;;;12.17;63.53;98020.63;4934975;29;20023;-67
2022/02/18 09:15:34;;;;;;;0.50;0.50;;;;;;;12.53;62.83;98021.88;4934434;29;20110;-69
2022/02/18 09:17:59;;;;;;;0.30;0.30;;;;;;;13.10;60.54;98002.31;4934670;29;20079;-68
2022/02/18 09:20:25;;;;;;;1.30;0.55;;;;;;;12.75;61.44;97993.28;4938167;29;20035;-68
2022/02/18 09:22:50;;;;;;;0.30;0.30;;;;;;;12.52;63.02;97999.41;4938193;29;20055;-68
2022/02/18 09:25:16;;;;;;;5.28;0.50;;;;;;;12.42;63.42;98003.22;4937986;29;20048;-68
2022/02/18 09:27:41;;;;;;;0.85;0.85;;;;;;;12.48;63.42;97997.81;4920950;29;20027;-68
2022/02/18 09:30:10;;;;;;;0.30;0.30;;;;;;;12.37;63.80;97989.56;4938000;29;20039;-68
2022/02/18 09:32:36;;;;;;;0.52;0.52;;;;;;;12.47;63.76;97980.50;4935953;29;20396;-69
2022/02/18 09:35:03;;;;;;;1.02;0.65;;;;;;;12.42;64.09;97979.84;4930297;29;20028;-68
2022/02/18 09:37:28;;;;;;;0.63;0.40;;;;;;;12.54;63.90;97981.16;4937840;29;20024;-68
2022/02/18 09:39:54;;;;;;;0.50;0.50;;;;;;;12.64;63.91;97972.06;4921054;29;20020;-68
2022/02/18 09:42:20;;;;;;;0.73;0.73;;;;;;;12.66;63.81;97966.81;4920734;29;20095;-69
2022/02/18 09:44:47;;;;;;;0.30;0.30;;;;;;;12.90;62.86;97963.22;4937933;29;20028;-69
2022/02/18 09:47:13;;;;;;;0.90;0.60;;;;;;;13.23;62.09;97962.78;4937544;29;20063;-69
2022/02/18 09:49:41;;;;;;;0.20;0.20;;;;;;;13.36;61.77;97966.59;4937930;29;20027;-68
2022/02/18 09:52:07;;;;;;;0.55;0.55;;;;;;;13.24;62.01;97964.47;4937807;29;20024;-68
2022/02/18 09:54:33;;;;;;;0.30;0.30;;;;;;;13.14;61.87;97961.38;4920686;29;20039;-68
2022/02/18 09:57:00;;;;;;;0.20;0.20;;;;;;;13.23;62.10;97955.00;4937430;29;20031;-68
2022/02/18 09:59:27;;;;;;;0.57;0.57;;;;;;;13.09;62.47;97964.16;4937641;29;20024;-69
2022/02/18 10:01:52;;;;;;;0.35;0.35;;;;;;;13.08;62.62;97957.28;4935366;29;20060;-69
2022/02/18 10:04:17;;;;;;;0.65;0.47;;;;;;;13.28;62.01;97947.84;4929207;29;20370;-69
2022/02/18 10:06:43;;;;;;;6.00;3.22;;;;;;;13.62;61.32;97929.00;4937279;29;20536;-69
2022/02/18 10:09:08;;;;;;;0.57;0.30;;;;;;;13.80;60.85;97932.56;4937576;29;20497;-69
2022/02/18 10:11:59;;;;;;;0.30;0.30;;;;;;;13.80;60.83;97927.38;4937639;29;20024;-69
2022/02/18 10:14:25;;;;;;;0.22;0.22;;;;;;;13.75;60.39;97934.53;4937267;29;20035;-68
2022/02/18 10:16:50;;;;;;;0.57;0.57;;;;;;;13.73;61.07;97928.53;4936944;29;20039;-69
2022/02/18 10:19:16;;;;;;;0.35;0.35;;;;;;;13.70;61.41;97918.28;4937358;29;20035;-69
2022/02/18 10:21:44;;;;;;;0.88;0.70;;;;;;;13.91;60.82;97914.69;4937203;29;20031;-68
2022/02/18 10:24:14;;;;;;;0.20;0.20;;;;;;;14.69;59.14;97905.00;4937157;29;20509;-68
2022/02/18 10:26:44;;;;;;;0.65;0.30;;;;;;;15.71;55.87;97901.59;4936946;29;20106;-68
2022/02/18 10:29:17;;;;;;;0.30;0.30;;;;;;;17.05;51.86;97894.13;4937237;29;20438;-69
2022/02/18 10:31:43;;;;;;;0.30;0.30;;;;;;;19.89;44.34;97880.31;4936358;29;20055;-69
2022/02/18 10:34:10;;;;;;;0.60;0.15;;;;;;;21.44;40.20;97871.63;4927205;29;20066;-70
2022/02/18 10:36:39;;;;;;;0.17;0.17;;;;;;;20.43;42.71;97873.84;4936902;29;20047;-68
2022/02/18 10:39:26;;;;;;;0.20;0.20;;;;;;;22.73;38.51;97857.81;4936878;29;20038;-68
2022/02/18 10:42:02;;;;;;;0.75;0.20;;;;;;;19.31;44.44;97862.44;4937045;29;20031;-68
2022/02/18 10:44:30;;;;;;;0.50;0.50;;;;;;;18.33;48.22;97858.41;4936731;29;20032;-68
2022/02/18 10:46:56;;;;;;;0.65;0.35;;;;;;;18.49;47.64;97856.47;4936769;29;20107;-69
2022/02/18 10:49:23;;;;;;;0.30;0.30;;;;;;;16.99;51.35;97863.09;4936672;29;20023;-69
2022/02/18 10:51:52;;;;;;;0.93;0.50;;;;;;;16.23;53.02;97857.81;4936627;29;20042;-69
2022/02/18 10:54:27;;;;;;;0.30;0.20;;;;;;;15.82;55.00;97852.25;4919452;29;20159;-69
2022/02/18 10:57:24;;;;;;;0.93;0.75;;;;;;;15.33;56.30;97844.38;4936366;29;20024;-68
2022/02/18 10:59:50;;;;;;;1.13;1.02;;;;;;;14.97;57.96;97840.13;4936563;29;20102;-68
2022/02/18 11:02:35;;;;;;;0.30;0.30;;;;;;;14.60;58.99;97828.94;4933726;29;20143;-68
2022/02/18 11:05:24;;;;;;;0.20;0.20;;;;;;;14.64;59.52;97830.44;4928289;29;20035;-68
2022/02/18 11:07:50;;;;;;;0.40;0.40;;;;;;;14.89;58.99;97824.00;4936357;29;20024;-68
2022/02/18 11:10:35;;;;;;;0.30;0.30;;;;;;;15.20;57.79;97812.00;4936321;29;20035;-68
2022/02/18 11:13:01;;;;;;;0.88;0.65;;;;;;;15.58;57.12;97796.94;4936327;29;20028;-69
2022/02/18 11:15:27;;;;;;;0.32;0.32;;;;;;;17.09;52.66;97774.41;4936383;29;20043;-69
2022/02/18 11:17:54;;;;;;;0.30;0.30;;;;;;;18.15;49.79;97756.38;4936113;29;20485;-68
2022/02/18 11:20:20;;;;;;;0.30;0.30;;;;;;;19.82;45.63;97746.75;4936100;29;20482;-70
2022/02/18 11:22:45;;;;;;;2.67;1.92;;;;;;;21.37;43.29;97738.63;4936114;29;20071;-68
2022/02/18 11:25:11;;;;;;;0.43;0.40;;;;;;;22.39;39.78;97740.09;4935893;29;20075;-69
2022/02/18 11:27:37;;;;;;;0.30;0.30;;;;;;;20.08;44.70;97743.09;4951193;23;20028;-78
2022/02/18 11:30:04;;;;;;;3.88;0.73;;;;;;;21.14;42.48;97733.34;4935024;29;20043;-79
2022/02/18 11:32:38;;;;;;;0.57;0.43;;;;;;;21.64;41.03;97719.78;4940149;29;20026;-79
2022/02/18 11:35:33;;;;;;;0.68;0.50;;;;;;;18.18;48.19;97740.44;4946808;29;20023;-79
2022/02/18 11:38:45;;;;;;;1.92;0.85;;;;;;;17.60;50.03;97728.44;4954751;28;20026;-78
2022/02/18 11:41:36;;;;;;;0.17;0.17;;;;;;;16.40;53.04;97718.31;4954353;28;20031;-78
2022/02/18 11:44:02;;;;;;;0.20;0.20;;;;;;;16.52;53.07;97716.72;4954614;29;20094;-76
2022/02/18 11:46:28;;;;;;;0.20;0.20;;;;;;;16.32;52.99;97716.13;4954491;29;20038;-77
2022/02/18 11:48:59;;;;;;;3.20;0.63;;;;;;;16.22;52.41;97714.16;4954728;28;20094;-77
2022/02/18 11:51:45;;;;;;;0.40;0.40;;;;;;;16.08;52.60;97707.94;4954663;29;20027;-69
2022/02/18 11:54:28;;;;;;;0.20;0.20;;;;;;;16.35;52.24;97709.91;4954457;29;20027;-78
2022/02/18 11:57:01;;;;;;;0.20;0.20;;;;;;;16.51;51.24;97713.28;4954383;29;20023;-78
2022/02/18 12:00:06;;;;;;;0.30;0.30;;;;;;;16.50;51.62;97688.06;4954407;28;20118;-78
2022/02/18 12:02:48;;;;;;;0.60;0.60;;;;;;;16.37;52.38;97687.94;4948249;29;20029;-77
2022/02/18 12:05:20;;;;;;;7.05;1.02;;;;;;;16.11;53.08;97676.41;4946366;29;20488;-75
2022/02/18 12:07:47;;;;;;;0.20;0.20;;;;;;;16.22;52.65;97683.63;4954189;28;20039;-81
2022/02/18 12:10:19;;;;;;;4.47;1.17;;;;;;;16.03;52.32;97672.56;4954397;29;20019;-78
2022/02/18 12:12:46;;;;;;;0.45;0.45;;;;;;;16.01;52.52;97662.19;4954383;29;20123;-78
2022/02/18 12:15:28;;;;;;;0.22;0.22;;;;;;;16.05;52.17;97647.16;4954134;29;20027;-78
2022/02/18 12:18:03;;;;;;;1.08;0.70;;;;;;;15.87;52.62;97643.88;4953852;28;20047;-78
2022/02/18 12:20:34;;;;;;;23.08;0.77;;;;;;;16.04;52.31;97654.16;4954070;29;20117;-78
2022/02/18 12:23:22;;;;;;;0.22;0.22;;;;;;;16.04;50.72;97630.66;4936639;29;20066;-78
2022/02/18 12:25:47;;;;;;;1.13;0.77;;;;;;;16.15;51.31;97643.94;4949436;29;20035;-78
2022/02/18 12:28:18;;;;;;;0.30;0.30;;;;;;;16.08;51.29;97613.84;4953862;28;20093;-78
2022/02/18 12:30:56;;;;;;;0.55;0.55;;;;;;;16.11;50.95;97625.91;4954070;29;20054;-78
2022/02/18 12:33:22;;;;;;;0.40;0.40;;;;;;;16.24;50.84;97628.63;4947676;29;20015;-77
2022/02/18 12:35:48;;;;;;;0.40;0.40;;;;;;;16.16;51.45;97622.09;4934381;29;20477;-78
2022/02/18 12:38:14;;;;;;;0.45;0.40;;;;;;;16.18;50.92;97620.22;4934363;29;20039;-78
2022/02/18 12:40:41;;;;;;;0.30;0.30;;;;;;;16.10;50.03;97617.25;4934561;29;20067;-78
2022/02/18 12:43:14;;;;;;;0.20;0.20;;;;;;;16.12;50.63;97607.53;4933690;29;20015;-78
2022/02/18 12:45:40;;;;;;;1.45;1.15;;;;;;;16.32;50.98;97600.28;4934345;29;20043;-78
2022/02/18 12:48:06;;;;;;;0.20;0.20;;;;;;;16.46;50.52;97592.44;4933771;29;20378;-78
2022/02/18 12:50:38;;;;;;;0.57;0.57;;;;;;;16.64;50.97;97614.84;4934396;29;20035;-78
2022/02/18 12:53:04;;;;;;;0.25;0.25;;;;;;;16.25;51.09;97593.75;4951830;28;20031;-78
2022/02/18 12:55:33;;;;;;;0.65;0.30;;;;;;;16.22;51.56;97586.06;4957657;29;20047;-78
2022/02/18 12:57:58;;;;;;;0.73;0.73;;;;;;;16.12;51.81;97586.63;4935234;29;20123;-80
2022/02/18 13:00:25;;;;;;;0.65;0.52;;;;;;;16.09;52.33;97589.41;4938412;29;20059;-80
2022/02/18 13:02:52;;;;;;;0.20;0.20;;;;;;;15.89;52.70;97567.06;4937515;29;20015;-80
2022/02/18 13:05:32;;;;;;;0.50;0.50;;;;;;;15.97;52.76;97579.69;4949083;29;20037;-78
2022/02/18 13:08:24;;;;;;;3.95;1.50;;;;;;;15.91;53.06;97577.44;4937620;29;20051;-78
2022/02/18 13:10:53;;;;;;;0.30;0.30;;;;;;;15.92;53.15;97563.44;4937761;29;20059;-78
2022/02/18 13:13:21;;;;;;;0.10;0.10;;;;;;;15.84;52.69;97552.59;4938030;29;20012;-78
2022/02/18 13:15:51;;;;;;;0.40;0.40;;;;;;;15.91;52.49;97548.72;4937897;29;20040;-78
2022/02/18 13:18:16;;;;;;;0.20;0.20;;;;;;;15.85;53.14;97544.66;4938327;29;20035;-78
2022/02/18 13:20:47;;;;;;;6.35;0.40;;;;;;;15.84;53.10;97542.16;4936798;29;20400;-78
2022/02/18 13:23:16;;;;;;;0.43;0.43;;;;;;;15.82;53.03;97528.34;4938134;29;20338;-78
2022/02/18 13:25:51;;;;;;;4.00;0.40;;;;;;;15.87;53.72;97536.75;4937907;29;20039;-78
2022/02/18 13:28:28;;;;;;;0.20;0.20;;;;;;;15.86;52.41;97514.19;4920713;29;20134;-78
2022/02/18 13:30:56;;;;;;;0.38;0.38;;;;;;;15.81;52.28;97518.81;4936652;29;20484;-78
2022/02/18 13:33:32;;;;;;;0.35;0.35;;;;;;;15.88;52.87;97528.00;4945652;29;20103;-78
2022/02/18 13:36:00;;;;;;;0.20;0.20;;;;;;;15.80;52.43;97524.97;4953657;29;20043;-78
2022/02/18 13:38:33;;;;;;;0.60;0.60;;;;;;;15.78;51.97;97529.47;4956853;28;20496;-78
2022/02/18 13:41:07;;;;;;;0.30;0.30;;;;;;;15.73;51.44;97528.91;4954786;29;20035;-79
2022/02/18 13:43:39;;;;;;;0.25;0.25;;;;;;;15.72;51.72;97524.63;4948776;29;20495;-79
2022/02/18 13:46:06;;;;;;;0.28;0.28;;;;;;;15.66;52.58;97507.50;4956695;29;20035;-78
2022/02/18 13:48:33;;;;;;;0.20;0.20;;;;;;;15.68;51.90;97514.34;4956831;28;20491;-78
2022/02/18 13:50:59;;;;;;;0.80;0.35;;;;;;;15.66;51.04;97517.94;4954592;29;20063;-79
2022/02/18 13:53:24;;;;;;;0.50;0.50;;;;;;;15.61;51.47;97510.34;4937359;29;20019;-78
2022/02/18 13:55:49;;;;;;;0.30;0.30;;;;;;;15.59;50.96;97517.44;4937258;29;20123;-80
2022/02/18 13:58:25;;;;;;;0.30;0.30;;;;;;;15.53;51.47;97516.97;4920358;29;20047;-79
2022/02/18 14:00:51;;;;;;;0.30;0.30;;;;;;;15.49;51.35;97529.38;4920283;29;20032;-80
2022/02/18 14:03:17;;;;;;;1.00;0.60;;;;;;;15.46;51.76;97526.91;4937647;29;20166;-79
2022/02/18 14:05:43;;;;;;;3.00;1.15;;;;;;;15.47;51.87;97528.59;4936588;29;20035;-79
2022/02/18 14:08:12;;;;;;;0.20;0.20;;;;;;;15.45;52.02;97519.19;4920124;29;20374;-79
2022/02/18 14:10:48;;;;;;;0.32;0.32;;;;;;;15.40;51.76;97511.63;4937256;29;20036;-80
2022/02/18 14:13:24;;;;;;;0.20;0.20;;;;;;;15.39;52.25;97516.00;4937172;29;20363;-79
2022/02/18 14:16:02;;;;;;;0.32;0.30;;;;;;;15.42;52.46;97504.53;4936965;29;20026;-79
2022/02/18 14:18:28;;;;;;;0.38;0.38;;;;;;;15.37;52.64;97511.78;4936994;29;20031;-79
2022/02/18 14:21:03;;;;;;;0.22;0.22;;;;;;;15.34;52.58;97506.75;4937070;29;20023;-79
2022/02/18 14:23:33;;;;;;;0.90;0.77;;;;;;;15.38;52.59;97510.88;4936896;29;20428;-79
2022/02/18 14:25:58;;;;;;;2.22;0.80;;;;;;;15.40;52.57;97512.47;4936861;29;20054;-79
2022/02/18 14:28:24;;;;;;;0.43;0.43;;;;;;;15.45;52.53;97509.59;4936800;29;20039;-79
2022/02/18 14:30:54;;;;;;;0.25;0.25;;;;;;;15.40;52.93;97511.63;4937072;29;20142;-79
2022/02/18 14:33:20;;;;;;;0.25;0.25;;;;;;;15.44;52.64;97497.47;4938305;29;20019;-79
2022/02/18 14:35:46;;;;;;;0.47;0.40;;;;;;;15.46;51.98;97490.38;4943319;29;20046;-79
2022/02/18 14:38:11;;;;;;;4.95;1.27;;;;;;;15.49;51.03;97484.97;4955937;28;20027;-78
2022/02/18 14:40:42;;;;;;;0.65;0.30;;;;;;;15.47;51.46;97481.59;4955432;29;20064;-79
2022/02/18 14:43:08;;;;;;;0.40;0.40;;;;;;;15.54;52.40;97488.16;4955391;29;20047;-79
2022/02/18 14:45:34;;;;;;;0.20;0.20;;;;;;;15.44;51.75;97481.81;4955599;29;20469;-79
2022/02/18 14:48:01;;;;;;;0.50;0.50;;;;;;;15.50;51.31;97472.75;4955879;28;20131;-79
2022/02/18 14:50:31;;;;;;;0.30;0.30;;;;;;;15.40;51.62;97475.06;4955837;29;20035;-79
2022/02/18 14:53:00;;;;;;;0.77;0.77;;;;;;;15.45;50.89;97480.88;4955857;29;20028;-79
2022/02/18 14:55:26;;;;;;;0.32;0.32;;;;;;;15.50;51.05;97481.44;4955712;29;20035;-79
2022/02/18 14:57:52;;;;;;;0.38;0.30;;;;;;;15.49;51.32;97474.53;4955759;28;20118;-78
2022/02/18 15:00:18;;;;;;;0.45;0.45;;;;;;;15.48;51.25;97472.88;4955629;29;20159;-79
2022/02/18 15:02:45;;;;;;;1.20;1.15;;;;;;;15.52;51.31;97469.16;4948263;29;20019;-79
2022/02/18 15:05:10;;;;;;;1.55;1.13;;;;;;;15.53;51.51;97455.16;4938098;29;20042;-79
2022/02/18 15:07:35;;;;;;;0.20;0.20;;;;;;;15.56;50.56;97457.56;4955310;28;20023;-79
2022/02/18 15:10:01;;;;;;;0.30;0.30;;;;;;;15.69;50.50;97460.34;4942523;29;20035;-78
2022/02/18 15:12:27;;;;;;;0.30;0.30;;;;;;;15.76;50.76;97464.28;4936245;29;20024;-78
2022/02/18 15:14:52;;;;;;;1.65;0.93;;;;;;;15.77;50.43;97462.50;4936252;29;20083;-79
2022/02/18 15:17:18;;;;;;;8.68;0.35;;;;;;;15.65;51.21;97454.44;4935210;29;20035;-78
2022/02/18 15:19:45;;;;;;;0.35;0.35;;;;;;;15.70;51.52;97461.16;4936187;29;20034;-78
2022/02/18 15:22:10;;;;;;;0.30;0.30;;;;;;;15.61;51.23;97452.91;4936139;29;20038;-78
2022/02/18 15:24:36;;;;;;;0.22;0.22;;;;;;;15.55;51.75;97458.50;4935953;29;20504;-79
2022/02/18 15:27:01;;;;;;;0.40;0.40;;;;;;;15.50;52.46;97464.94;4934954;29;20075;-78
2022/02/18 15:34:55;;;;;;;0.30;0.30;;;;;;;15.32;53.03;97449.41;4935651;29;20035;-78
2022/02/18 15:37:20;;;;;;;0.43;0.38;;;;;;;15.29;52.65;97446.16;4954548;29;20396;-78
2022/02/18 15:42:29;;;;;;;1.45;0.30;;;;;;;15.30;53.01;97450.44;4954516;29;20049;-78
2022/02/18 15:44:55;;;;;;;0.50;0.50;;;;;;;15.22;53.22;97439.59;4954711;29;20039;-78
2022/02/18 15:47:20;;;;;;;0.20;0.20;;;;;;;15.07;54.00;97446.56;4954445;29;20548;-79
2022/02/18 15:49:47;;;;;;;0.40;0.40;;;;;;;15.19;53.70;97452.84;4954637;28;20027;-78
2022/02/18 15:52:14;;;;;;;0.47;0.47;;;;;;;15.14;53.76;97453.94;4954565;29;20122;-78
2022/02/18 15:54:40;;;;;;;0.47;0.47;;;;;;;15.11;54.19;97454.13;4954790;29;20031;-79
2022/02/18 15:57:09;;;;;;;0.68;0.68;;;;;;;15.06;54.03;97450.94;4954315;29;20373;-79
2022/02/18 15:59:35;;;;;;;0.28;0.28;;;;;;;15.05;54.36;97449.25;4954531;28;20031;-79
2022/02/18 16:02:01;;;;;;;2.28;0.43;;;;;;;14.99;54.88;97460.06;4951932;29;20035;-79
2022/02/18 16:04:34;;;;;;;0.20;0.20;;;;;;;15.05;54.43;97449.25;4935645;29;20047;-79